createdAt,value
2022-10-26T00:01:22.217Z,11.70
2022-10-26T00:03:50.305Z,11.60
2022-10-26T00:06:21.078Z,11.60
2022-10-26T00:08:49.674Z,11.70
2022-10-26T00:11:19.267Z,11.70
2022-10-26T00:13:48.254Z,11.70
2022-10-26T00:16:24.548Z,11.70
2022-10-26T00:18:52.751Z,11.60
2022-10-26T00:21:20.615Z,11.60
2022-10-26T00:23:48.675Z,11.70
2022-10-26T00:26:16.633Z,11.70
2022-10-26T00:28:44.558Z,11.70
2022-10-26T00:31:16.767Z,11.70
2022-10-26T00:33:44.778Z,11.70
2022-10-26T00:36:16.951Z,11.70
2022-10-26T00:38:53.973Z,11.60
2022-10-26T00:41:32.051Z,11.70
2022-10-26T00:44:01.107Z,11.70
2022-10-26T00:46:39.654Z,11.60
2022-10-26T00:49:17.117Z,11.70
2022-10-26T00:51:50.450Z,11.70
2022-10-26T00:54:19.870Z,11.70
2022-10-26T00:56:51.539Z,11.80
2022-10-26T00:59:21.933Z,11.80
2022-10-26T01:01:51.272Z,11.80
2022-10-26T01:04:19.811Z,12.00
2022-10-26T01:06:48.749Z,12.00
2022-10-26T01:09:18.156Z,12.00
2022-10-26T01:11:46.827Z,11.90
2022-10-26T01:14:17.963Z,11.90
2022-10-26T01:17:06.839Z,11.90
2022-10-26T01:19:59.316Z,11.90
2022-10-26T01:22:35.802Z,11.90
2022-10-26T01:25:27.621Z,11.90
2022-10-26T01:27:55.621Z,12.00
2022-10-26T01:30:46.320Z,12.00
2022-10-26T01:33:28.301Z,12.00
2022-10-26T01:36:33.935Z,12.00
2022-10-26T01:39:18.750Z,11.90
2022-10-26T01:41:50.028Z,11.90
2022-10-26T01:44:39.893Z,11.90
2022-10-26T01:47:12.406Z,11.90
2022-10-26T01:49:47.190Z,11.90
2022-10-26T01:52:15.213Z,11.90
2022-10-26T01:54:43.095Z,12.00
2022-10-26T01:57:15.368Z,12.00
2022-10-26T01:59:48.961Z,12.10
2022-10-26T02:02:38.039Z,12.10
2022-10-26T02:05:30.350Z,14.30
2022-10-26T02:08:41.145Z,12.10
2022-10-26T02:11:40.355Z,12.10
2022-10-26T02:14:19.231Z,12.10
2022-10-26T02:17:30.242Z,12.10
2022-10-26T02:20:07.506Z,12.10
2022-10-26T02:22:38.276Z,12.10
2022-10-26T02:25:19.799Z,12.10
2022-10-26T02:27:56.004Z,12.10
2022-10-26T02:30:23.954Z,12.00
2022-10-26T02:32:55.412Z,12.00
2022-10-26T02:35:31.556Z,12.00
2022-10-26T02:38:03.286Z,12.00
2022-10-26T02:40:32.916Z,12.00
2022-10-26T02:43:06.609Z,12.10
2022-10-26T02:45:58.318Z,12.10
2022-10-26T02:48:26.350Z,12.10
2022-10-26T02:51:09.218Z,12.10
2022-10-26T02:54:15.823Z,12.10
2022-10-26T02:56:54.689Z,12.10
2022-10-26T02:59:28.169Z,12.10
2022-10-26T03:01:56.971Z,12.10
2022-10-26T03:04:32.869Z,12.20
2022-10-26T03:07:01.170Z,12.20
2022-10-26T03:09:29.285Z,12.20
2022-10-26T03:11:57.267Z,12.20
2022-10-26T03:14:25.238Z,12.20
2022-10-26T03:16:53.297Z,12.20
2022-10-26T03:19:21.300Z,12.20
2022-10-26T03:21:49.222Z,12.10
2022-10-26T03:26:45.239Z,12.10
2022-10-26T03:29:13.029Z,12.10
2022-10-26T03:31:40.944Z,12.10
2022-10-26T03:34:08.875Z,12.10
2022-10-26T03:36:36.678Z,12.10
2022-10-26T03:39:04.661Z,12.10
2022-10-26T03:41:32.552Z,12.10
2022-10-26T03:44:00.532Z,12.10
2022-10-26T03:46:28.473Z,12.10
2022-10-26T03:48:56.470Z,12.10
2022-10-26T03:51:24.417Z,12.10
2022-10-26T03:53:52.517Z,12.10
2022-10-26T03:56:20.397Z,12.10
2022-10-26T03:58:48.309Z,12.10
2022-10-26T04:01:16.332Z,12.10
2022-10-26T04:03:44.395Z,12.00
2022-10-26T04:06:12.414Z,12.10
2022-10-26T04:08:40.420Z,12.00
2022-10-26T04:11:08.348Z,12.00
2022-10-26T04:13:36.334Z,12.00
2022-10-26T04:16:04.449Z,12.00
2022-10-26T04:18:32.317Z,12.00
2022-10-26T04:21:03.381Z,12.00
2022-10-26T04:23:31.335Z,11.90
2022-10-26T04:25:59.147Z,12.00
2022-10-26T04:28:27.026Z,11.90
2022-10-26T04:30:54.899Z,11.90
2022-10-26T04:33:22.837Z,11.90
2022-10-26T04:35:50.694Z,11.90
2022-10-26T04:38:18.565Z,11.90
2022-10-26T04:40:46.414Z,11.80
2022-10-26T04:43:14.247Z,11.80
2022-10-26T04:45:42.145Z,11.80
2022-10-26T04:48:14.393Z,11.80
2022-10-26T04:50:42.410Z,11.80
2022-10-26T04:53:11.976Z,11.80
2022-10-26T04:55:39.863Z,11.80
2022-10-26T04:58:07.950Z,11.80
2022-10-26T05:00:35.948Z,11.80
2022-10-26T05:03:06.705Z,11.80
2022-10-26T05:05:36.941Z,11.80
2022-10-26T05:08:05.664Z,11.80
2022-10-26T05:10:33.756Z,11.80
2022-10-26T05:13:02.344Z,11.80
2022-10-26T05:15:30.922Z,11.80
2022-10-26T05:18:04.357Z,11.90
2022-10-26T05:20:34.585Z,11.90
2022-10-26T05:23:06.524Z,11.90
2022-10-26T05:25:38.614Z,11.90
2022-10-26T05:28:12.009Z,11.90
2022-10-26T05:30:45.135Z,11.90
2022-10-26T05:33:14.688Z,11.90
2022-10-26T05:35:42.847Z,11.80
2022-10-26T05:38:17.230Z,11.80
2022-10-26T05:40:50.102Z,11.80
2022-10-26T05:43:19.390Z,11.80
2022-10-26T05:45:47.594Z,11.70
2022-10-26T05:48:15.423Z,11.80
2022-10-26T05:50:43.407Z,11.80
2022-10-26T05:53:11.253Z,11.80
2022-10-26T05:55:39.777Z,11.80
2022-10-26T05:58:13.333Z,11.80
2022-10-26T06:01:14.476Z,11.80
2022-10-26T06:04:02.359Z,11.80
2022-10-26T06:06:45.030Z,11.80
2022-10-26T06:09:15.700Z,11.80
2022-10-26T06:11:44.073Z,11.80
2022-10-26T06:14:12.545Z,11.80
2022-10-26T06:16:40.298Z,11.80
2022-10-26T06:20:02.517Z,11.80
2022-10-26T06:23:16.479Z,11.90
2022-10-26T06:26:05.732Z,11.90
2022-10-26T06:29:12.191Z,11.90
2022-10-26T06:31:40.411Z,11.90
2022-10-26T06:34:12.496Z,11.90
2022-10-26T06:36:41.708Z,11.90
2022-10-26T06:39:12.247Z,11.90
2022-10-26T06:41:40.606Z,12.00
2022-10-26T06:44:21.966Z,12.00
2022-10-26T06:46:54.937Z,12.00
2022-10-26T06:49:32.705Z,12.00
2022-10-26T06:52:12.390Z,12.00
2022-10-26T06:54:52.254Z,12.00
2022-10-26T06:57:27.014Z,12.00
2022-10-26T07:00:00.634Z,12.00
2022-10-26T07:02:29.409Z,12.00
2022-10-26T07:04:57.620Z,12.10
2022-10-26T07:07:30.858Z,12.10
2022-10-26T07:09:58.889Z,12.20
2022-10-26T07:12:30.754Z,13.10
2022-10-26T07:15:00.956Z,12.30
2022-10-26T07:17:30.629Z,12.20
2022-10-26T07:19:58.609Z,12.30
2022-10-26T07:22:26.456Z,12.30
2022-10-26T07:24:56.966Z,12.30
2022-10-26T07:27:27.216Z,12.30
2022-10-26T07:29:55.152Z,12.40
2022-10-26T07:32:23.014Z,12.40
2022-10-26T07:34:51.013Z,12.40
2022-10-26T07:37:18.916Z,12.50
2022-10-26T07:39:46.838Z,12.50
2022-10-26T07:42:16.321Z,12.50
2022-10-26T07:44:44.407Z,12.60
2022-10-26T07:47:12.808Z,12.60
2022-10-26T07:49:40.883Z,12.70
2022-10-26T07:52:10.245Z,12.80
2022-10-26T07:54:38.566Z,12.80
2022-10-26T07:57:06.416Z,12.90
2022-10-26T07:59:35.061Z,12.90
2022-10-26T08:02:03.029Z,13.00
2022-10-26T08:04:31.042Z,13.00
2022-10-26T08:06:59.155Z,13.10
2022-10-26T08:09:27.046Z,13.10
2022-10-26T08:11:54.927Z,13.20
2022-10-26T08:14:23.375Z,13.20
2022-10-26T08:16:52.690Z,13.30
2022-10-26T08:19:21.017Z,13.40
2022-10-26T08:21:48.985Z,13.50
2022-10-26T08:24:17.137Z,13.70
2022-10-26T08:26:46.643Z,13.80
2022-10-26T08:29:15.131Z,14.00
2022-10-26T08:31:43.593Z,14.20
2022-10-26T08:34:12.790Z,14.40
2022-10-26T08:39:10.161Z,14.50
2022-10-26T08:41:45.298Z,14.70
2022-10-26T08:44:34.122Z,14.80
2022-10-26T08:47:20.023Z,14.90
2022-10-26T08:49:59.365Z,15.00
2022-10-26T08:52:41.313Z,15.00
2022-10-26T08:55:16.541Z,15.10
2022-10-26T08:57:48.524Z,15.30
2022-10-26T09:00:21.552Z,15.30
2022-10-26T09:02:53.694Z,15.30
2022-10-26T09:05:39.398Z,15.30
2022-10-26T09:08:29.488Z,15.40
2022-10-26T09:11:34.870Z,15.40
2022-10-26T09:14:17.803Z,15.50
2022-10-26T09:17:17.953Z,15.60
2022-10-26T09:20:00.771Z,15.90
2022-10-26T09:23:32.066Z,16.10
2022-10-26T09:26:02.982Z,16.20
2022-10-26T09:28:36.533Z,16.20
2022-10-26T09:31:06.195Z,16.40
2022-10-26T09:33:39.710Z,16.60
2022-10-26T09:36:16.749Z,16.80
2022-10-26T09:38:47.494Z,17.00
2022-10-26T09:41:32.228Z,17.10
2022-10-26T09:44:30.174Z,17.40
2022-10-26T09:47:33.656Z,17.60
2022-10-26T09:50:29.472Z,18.00
2022-10-26T09:52:57.401Z,18.10
2022-10-26T09:55:25.481Z,18.20
2022-10-26T09:57:58.360Z,18.00
2022-10-26T10:00:28.976Z,18.10
2022-10-26T10:02:58.908Z,18.20
2022-10-26T10:05:50.868Z,18.50
2022-10-26T10:08:25.270Z,18.50
2022-10-26T10:10:59.475Z,18.60
2022-10-26T10:13:32.453Z,18.60
2022-10-26T10:16:20.189Z,18.60
2022-10-26T10:18:59.790Z,18.60
2022-10-26T10:21:45.870Z,18.60
2022-10-26T10:24:32.622Z,18.60
2022-10-26T10:27:18.592Z,18.60
2022-10-26T10:29:59.662Z,18.70
2022-10-26T10:32:35.808Z,18.70
2022-10-26T10:35:29.407Z,18.70
2022-10-26T10:38:04.646Z,18.80
2022-10-26T10:40:32.138Z,18.80
2022-10-26T10:43:13.498Z,18.80
2022-10-26T10:45:41.497Z,18.90
2022-10-26T10:48:22.883Z,18.90
2022-10-26T10:51:12.454Z,18.90
2022-10-26T10:53:53.664Z,18.80
2022-10-26T10:56:51.695Z,18.80
2022-10-26T11:00:03.257Z,18.90
2022-10-26T11:03:17.045Z,19.00
2022-10-26T11:06:22.318Z,19.10
2022-10-26T11:09:16.690Z,19.10
2022-10-26T11:12:02.239Z,19.00
2022-10-26T11:14:35.956Z,19.00
2022-10-26T11:17:19.965Z,19.00
2022-10-26T11:20:21.067Z,18.90
2022-10-26T11:22:56.487Z,18.90
2022-10-26T11:25:34.847Z,18.90
2022-10-26T11:28:30.827Z,18.90
2022-10-26T11:31:06.362Z,18.90
2022-10-26T11:36:26.002Z,19.00
2022-10-26T11:39:21.168Z,19.10
2022-10-26T11:42:03.873Z,19.10
2022-10-26T11:44:40.353Z,19.20
2022-10-26T11:47:17.170Z,19.30
2022-10-26T11:50:17.481Z,19.30
2022-10-26T11:52:55.020Z,19.40
2022-10-26T11:55:23.208Z,19.50
2022-10-26T11:57:53.799Z,19.60
2022-10-26T12:00:22.743Z,19.70
2022-10-26T12:03:08.449Z,19.90
2022-10-26T12:05:51.717Z,20.20
2022-10-26T12:08:27.975Z,20.60
2022-10-26T12:11:09.828Z,21.10
2022-10-26T12:13:52.530Z,21.50
2022-10-26T12:17:09.186Z,21.80
2022-10-26T12:19:45.662Z,21.80
2022-10-26T12:22:17.766Z,21.80
2022-10-26T12:24:47.449Z,22.00
2022-10-26T12:27:40.159Z,22.00
2022-10-26T12:30:19.118Z,22.20
2022-10-26T12:32:48.514Z,22.30
2022-10-26T12:35:39.154Z,22.40
2022-10-26T12:38:38.184Z,22.50
2022-10-26T12:41:20.260Z,22.60
2022-10-26T12:43:47.487Z,22.90
2022-10-26T12:46:14.323Z,23.00
2022-10-26T12:48:51.542Z,23.10
2022-10-26T12:51:26.816Z,23.10
2022-10-26T12:54:35.806Z,23.20
2022-10-26T12:57:27.357Z,23.20
2022-10-26T13:00:06.359Z,23.20
2022-10-26T13:03:26.794Z,23.10
2022-10-26T13:06:31.596Z,22.80
2022-10-26T13:09:01.929Z,22.80
2022-10-26T13:11:44.331Z,23.10
2022-10-26T13:14:33.055Z,23.00
2022-10-26T13:17:02.568Z,23.00
2022-10-26T13:19:49.370Z,22.90
2022-10-26T13:22:21.181Z,23.00
2022-10-26T13:24:53.935Z,23.00
2022-10-26T13:27:39.333Z,23.00
2022-10-26T13:30:38.645Z,23.00
2022-10-26T13:33:15.349Z,23.00
2022-10-26T13:35:50.302Z,23.10
2022-10-26T13:38:23.259Z,23.20
2022-10-26T13:40:53.395Z,23.10
2022-10-26T13:43:23.629Z,23.00
2022-10-26T13:46:04.519Z,23.00
2022-10-26T13:48:42.870Z,23.20
2022-10-26T13:51:25.396Z,23.00
2022-10-26T13:54:16.696Z,22.90
2022-10-26T13:57:03.634Z,22.80
2022-10-26T13:59:33.560Z,22.80
2022-10-26T14:02:32.486Z,22.90
2022-10-26T14:05:05.614Z,23.20
2022-10-26T14:07:56.840Z,23.30
2022-10-26T14:10:44.914Z,23.20
2022-10-26T14:13:25.340Z,23.30
2022-10-26T14:15:54.479Z,23.20
2022-10-26T14:18:30.892Z,23.10
2022-10-26T14:21:06.567Z,23.20
2022-10-26T14:23:50.050Z,23.00
2022-10-26T14:26:29.503Z,22.80
2022-10-26T14:29:02.016Z,22.90
2022-10-26T14:31:32.255Z,22.90
2022-10-26T14:34:01.639Z,22.80
2022-10-26T14:36:41.142Z,22.70
2022-10-26T14:39:31.065Z,22.40
2022-10-26T14:42:02.303Z,22.40
2022-10-26T14:44:30.670Z,22.30
2022-10-26T14:46:57.666Z,22.40
2022-10-26T14:49:28.003Z,22.50
2022-10-26T14:52:05.077Z,22.50
2022-10-26T14:54:33.822Z,22.50
2022-10-26T14:57:08.610Z,22.20
2022-10-26T14:59:35.811Z,22.20
2022-10-26T15:02:21.297Z,22.00
2022-10-26T15:05:18.954Z,21.70
2022-10-26T15:07:46.056Z,21.80
2022-10-26T15:10:37.571Z,21.30
2022-10-26T15:13:31.278Z,21.90
2022-10-26T15:16:10.309Z,21.80
2022-10-26T15:18:38.727Z,21.50
2022-10-26T15:21:26.227Z,21.50
2022-10-26T15:23:54.955Z,21.30
2022-10-26T15:26:22.711Z,21.10
2022-10-26T15:28:50.246Z,21.10
2022-10-26T15:31:17.058Z,20.90
2022-10-26T15:34:03.884Z,20.80
2022-10-26T15:36:32.109Z,20.60
2022-10-26T15:38:59.677Z,20.30
2022-10-26T15:41:32.935Z,20.30
2022-10-26T15:44:05.954Z,20.20
2022-10-26T15:46:36.014Z,20.10
2022-10-26T15:49:08.508Z,20.10
2022-10-26T15:51:35.588Z,20.00
2022-10-26T15:54:04.611Z,19.80
2022-10-26T15:56:32.384Z,19.70
2022-10-26T15:58:59.653Z,19.70
2022-10-26T16:01:29.356Z,19.60
2022-10-26T16:03:56.543Z,19.60
2022-10-26T16:06:35.036Z,19.80
2022-10-26T16:09:05.414Z,19.90
2022-10-26T16:11:32.625Z,19.90
2022-10-26T16:14:02.841Z,19.80
2022-10-26T16:16:31.459Z,19.80
2022-10-26T16:19:18.463Z,19.70
2022-10-26T16:21:45.449Z,19.40
2022-10-26T16:24:13.373Z,19.20
2022-10-26T16:26:40.333Z,18.40
2022-10-26T16:29:07.240Z,18.40
2022-10-26T16:31:34.266Z,18.30
2022-10-26T16:34:04.099Z,18.30
2022-10-26T16:36:34.258Z,18.10
2022-10-26T16:41:32.018Z,17.90
2022-10-26T16:43:59.085Z,17.80
2022-10-26T16:46:26.097Z,17.50
2022-10-26T16:48:53.030Z,17.10
2022-10-26T16:51:28.324Z,17.10
2022-10-26T16:53:57.288Z,17.00
2022-10-26T16:56:28.401Z,17.10
2022-10-26T16:58:56.636Z,17.00
2022-10-26T17:01:23.824Z,17.00
2022-10-26T17:03:52.380Z,16.90
2022-10-26T17:06:19.809Z,16.90
2022-10-26T17:08:47.474Z,16.90
2022-10-26T17:11:19.192Z,16.80
2022-10-26T17:13:47.174Z,16.70
2022-10-26T17:16:20.699Z,16.70
2022-10-26T17:18:48.489Z,16.50
2022-10-26T17:21:17.570Z,16.30
2022-10-26T17:23:44.627Z,16.00
2022-10-26T17:26:14.011Z,16.00
2022-10-26T17:28:40.942Z,16.00
2022-10-26T17:31:14.929Z,15.90
2022-10-26T17:33:44.406Z,15.90
2022-10-26T17:36:13.990Z,15.90
2022-10-26T17:38:42.584Z,15.90
2022-10-26T17:41:18.739Z,15.80
2022-10-26T17:43:47.311Z,15.70
2022-10-26T17:46:20.989Z,15.60
2022-10-26T17:48:48.015Z,15.50
2022-10-26T17:51:18.435Z,15.40
2022-10-26T17:53:50.280Z,15.40
2022-10-26T17:56:21.953Z,15.40
2022-10-26T17:58:54.652Z,15.40
2022-10-26T18:01:22.372Z,15.40
2022-10-26T18:03:49.578Z,15.30
2022-10-26T18:06:19.886Z,15.30
2022-10-26T18:08:47.346Z,15.20
2022-10-26T18:11:24.022Z,15.20
2022-10-26T18:13:55.048Z,15.20
2022-10-26T18:16:23.859Z,15.20
2022-10-26T18:19:00.645Z,15.10
2022-10-26T18:21:31.192Z,15.00
2022-10-26T18:24:03.140Z,15.00
2022-10-26T18:26:36.321Z,14.90
2022-10-26T18:29:05.144Z,14.90
2022-10-26T18:31:34.919Z,14.70
2022-10-26T18:34:04.469Z,14.60
2022-10-26T18:36:32.599Z,14.70
2022-10-26T18:38:59.941Z,14.60
2022-10-26T18:41:27.385Z,14.70
2022-10-26T18:43:59.665Z,14.70
2022-10-26T18:46:30.719Z,14.80
2022-10-26T18:48:59.258Z,14.80
2022-10-26T18:51:30.963Z,14.70
2022-10-26T18:53:59.158Z,14.70
2022-10-26T18:56:27.317Z,14.70
2022-10-26T18:58:58.816Z,14.70
2022-10-26T19:01:28.511Z,14.70
2022-10-26T19:04:02.261Z,14.70
2022-10-26T19:06:33.331Z,14.40
2022-10-26T19:09:01.134Z,14.30
2022-10-26T19:11:30.472Z,14.20
2022-10-26T19:13:57.791Z,14.20
2022-10-26T19:19:17.023Z,14.00
2022-10-26T19:21:46.239Z,14.00
2022-10-26T19:24:20.315Z,14.00
2022-10-26T19:26:48.973Z,14.10
2022-10-26T19:29:17.269Z,14.10
2022-10-26T19:31:46.328Z,13.90
2022-10-26T19:34:15.170Z,14.10
2022-10-26T19:36:45.036Z,14.00
2022-10-26T19:39:16.675Z,14.10
2022-10-26T19:41:45.251Z,14.10
2022-10-26T19:44:14.445Z,14.20
2022-10-26T19:46:43.295Z,14.30
2022-10-26T19:49:10.538Z,14.30
2022-10-26T19:51:37.472Z,14.40
2022-10-26T19:54:06.784Z,14.40
2022-10-26T19:56:36.396Z,14.30
2022-10-26T19:59:04.141Z,14.30
2022-10-26T20:01:31.369Z,14.30
2022-10-26T20:03:58.467Z,14.30
2022-10-26T20:06:25.477Z,14.20
2022-10-26T20:08:52.421Z,14.20
2022-10-26T20:11:20.492Z,14.20
2022-10-26T20:13:48.572Z,14.10
2022-10-26T20:16:17.530Z,13.90
2022-10-26T20:18:47.847Z,13.90
2022-10-26T20:21:17.613Z,13.80
2022-10-26T20:23:45.335Z,13.80
2022-10-26T20:26:19.267Z,13.90
2022-10-26T20:28:48.452Z,13.80
2022-10-26T20:31:15.667Z,13.80
2022-10-26T20:33:42.724Z,13.50
2022-10-26T20:36:09.753Z,13.40
2022-10-26T20:38:38.414Z,13.20
2022-10-26T20:41:09.250Z,12.90
2022-10-26T20:43:40.041Z,12.90
2022-10-26T20:46:22.547Z,13.00
2022-10-26T20:48:51.194Z,12.90
2022-10-26T20:51:23.601Z,12.90
2022-10-26T20:54:17.771Z,12.80
2022-10-26T20:56:45.611Z,12.80
2022-10-26T20:59:43.624Z,12.70
2022-10-26T21:02:11.045Z,12.70
2022-10-26T21:04:38.568Z,12.70
2022-10-26T21:07:05.870Z,12.70
2022-10-26T21:09:35.783Z,12.80
2022-10-26T21:12:04.637Z,12.80
2022-10-26T21:14:35.831Z,12.80
2022-10-26T21:17:02.745Z,12.80
2022-10-26T21:19:29.646Z,12.80
2022-10-26T21:21:56.553Z,12.50
2022-10-26T21:24:23.721Z,12.80
2022-10-26T21:26:50.634Z,12.90
2022-10-26T21:31:45.305Z,12.50
2022-10-26T21:36:39.553Z,12.40
2022-10-26T21:39:06.502Z,12.30
2022-10-26T21:41:36.778Z,12.40
2022-10-26T21:44:09.255Z,12.30
2022-10-26T21:46:40.500Z,12.30
2022-10-26T21:49:07.431Z,12.40
2022-10-26T21:51:35.219Z,12.30
2022-10-26T21:54:03.239Z,12.00
2022-10-26T21:56:30.188Z,12.20
2022-10-26T21:59:00.344Z,12.20
2022-10-26T22:01:27.489Z,12.00
2022-10-26T22:03:54.797Z,12.00
2022-10-26T22:06:22.087Z,12.00
2022-10-26T22:08:50.265Z,12.00
2022-10-26T22:11:21.346Z,12.00
2022-10-26T22:13:49.993Z,11.80
2022-10-26T22:16:25.927Z,11.90
2022-10-26T22:18:55.737Z,12.00
2022-10-26T22:21:26.749Z,12.00
2022-10-26T22:23:54.186Z,11.70
2022-10-26T22:26:24.136Z,11.60
2022-10-26T22:28:54.875Z,11.60
2022-10-26T22:31:28.610Z,11.70
2022-10-26T22:34:08.195Z,11.80
2022-10-26T22:36:35.759Z,11.90
2022-10-26T22:39:03.128Z,11.60
2022-10-26T22:41:30.209Z,11.60
2022-10-26T22:43:57.140Z,11.70
2022-10-26T22:46:26.757Z,11.70
2022-10-26T22:49:00.257Z,11.80
2022-10-26T22:51:31.337Z,11.50
2022-10-26T22:54:01.632Z,11.40
2022-10-26T22:56:30.844Z,11.30
2022-10-26T22:58:58.186Z,11.40
2022-10-26T23:01:32.639Z,11.30
2022-10-26T23:04:00.418Z,11.40
2022-10-26T23:06:30.443Z,11.20
2022-10-26T23:08:58.166Z,11.10
2022-10-26T23:11:27.463Z,11.00
2022-10-26T23:14:00.601Z,11.00
2022-10-26T23:16:29.440Z,10.90
2022-10-26T23:18:58.325Z,10.80
2022-10-26T23:26:22.311Z,10.90
2022-10-26T23:28:50.484Z,11.00
2022-10-26T23:31:19.749Z,11.20
2022-10-26T23:33:49.918Z,11.20
2022-10-26T23:36:16.993Z,11.30
2022-10-26T23:38:43.925Z,11.30
2022-10-26T23:41:12.981Z,11.30
2022-10-26T23:43:40.581Z,11.00
2022-10-26T23:46:07.924Z,11.00
2022-10-26T23:48:34.882Z,11.00
2022-10-26T23:51:01.842Z,11.00
2022-10-26T23:55:56.220Z,10.80
2022-10-26T23:58:23.173Z,10.70
